createdAt,value
2018-12-16T00:02:11.680Z,22.30
2018-12-16T00:04:39.903Z,22.53
2018-12-16T00:07:08.169Z,21.13
2018-12-16T00:09:36.401Z,23.93
2018-12-16T00:12:04.660Z,22.83
2018-12-16T00:14:32.909Z,23.13
2018-12-16T00:17:20.567Z,22.53
2018-12-16T00:19:48.806Z,21.97
2018-12-16T00:22:17.053Z,21.60
2018-12-16T00:24:45.300Z,23.50
2018-12-16T00:27:13.575Z,22.63
2018-12-16T00:29:41.819Z,22.60
2018-12-16T00:32:10.096Z,22.57
2018-12-16T00:34:38.341Z,23.00
2018-12-16T00:37:06.595Z,21.93
2018-12-16T00:39:34.855Z,23.50
2018-12-16T00:42:03.132Z,22.73
2018-12-16T00:44:31.365Z,23.67
2018-12-16T00:46:59.669Z,22.00
2018-12-16T00:49:27.905Z,21.93
2018-12-16T00:51:56.154Z,24.07
2018-12-16T00:54:24.377Z,22.93
2018-12-16T00:56:52.646Z,23.63
2018-12-16T00:59:20.856Z,21.57
2018-12-16T01:01:49.108Z,22.90
2018-12-16T01:04:17.350Z,24.03
2018-12-16T01:06:45.626Z,21.87
2018-12-16T01:09:13.856Z,20.50
2018-12-16T01:11:42.102Z,23.23
2018-12-16T01:14:10.323Z,23.90
2018-12-16T01:16:38.542Z,23.43
2018-12-16T01:19:26.156Z,21.67
2018-12-16T01:21:54.450Z,21.93
2018-12-16T01:24:22.677Z,22.53
2018-12-16T01:26:50.895Z,21.13
2018-12-16T01:29:19.130Z,22.73
2018-12-16T01:31:47.367Z,21.67
2018-12-16T01:34:15.575Z,21.03
2018-12-16T01:36:43.831Z,20.37
2018-12-16T01:39:12.074Z,20.50
2018-12-16T01:41:40.313Z,20.50
2018-12-16T01:44:08.626Z,19.43
2018-12-16T01:46:36.895Z,21.40
2018-12-16T01:49:05.236Z,19.90
2018-12-16T01:51:33.459Z,21.17
2018-12-16T01:54:01.694Z,20.90
2018-12-16T01:56:29.914Z,19.53
2018-12-16T01:58:58.148Z,20.00
2018-12-16T02:04:13.688Z,18.93
2018-12-16T02:06:42.008Z,20.47
2018-12-16T02:09:10.294Z,17.80
2018-12-16T02:11:38.535Z,20.10
2018-12-16T02:14:06.878Z,18.87
2018-12-16T02:16:35.190Z,19.23
2018-12-16T02:19:03.436Z,18.10
2018-12-16T02:21:31.680Z,18.37
2018-12-16T02:24:19.228Z,19.07
2018-12-16T02:26:47.445Z,18.37
2018-12-16T02:29:15.722Z,18.90
2018-12-16T02:31:43.942Z,18.53
2018-12-16T02:34:12.208Z,17.47
2018-12-16T02:36:40.434Z,19.20
2018-12-16T02:39:08.664Z,18.53
2018-12-16T02:41:37.203Z,19.07
2018-12-16T02:44:05.444Z,17.27
2018-12-16T02:46:33.660Z,17.17
2018-12-16T02:49:01.903Z,16.43
2018-12-16T02:51:30.121Z,17.17
2018-12-16T02:53:58.376Z,14.60
2018-12-16T02:56:26.588Z,14.70
2018-12-16T02:58:54.817Z,13.97
2018-12-16T03:01:23.077Z,13.57
2018-12-16T03:03:51.323Z,14.23
2018-12-16T03:06:19.549Z,14.43
2018-12-16T03:08:47.805Z,13.73
2018-12-16T03:11:16.003Z,12.97
2018-12-16T03:13:44.269Z,12.23
2018-12-16T03:16:12.473Z,11.90
2018-12-16T03:18:40.725Z,10.30
2018-12-16T03:21:08.951Z,10.73
2018-12-16T03:23:37.165Z,10.20
2018-12-16T03:26:05.452Z,9.63
2018-12-16T03:28:33.682Z,10.33
2018-12-16T03:31:01.931Z,10.20
2018-12-16T03:33:30.157Z,11.17
2018-12-16T03:35:58.356Z,9.73
2018-12-16T03:38:26.613Z,10.87
2018-12-16T03:40:54.835Z,9.63
2018-12-16T03:43:23.010Z,10.17
2018-12-16T03:45:51.251Z,10.10
2018-12-16T03:48:19.459Z,9.57
2018-12-16T03:50:47.667Z,8.67
2018-12-16T03:53:19.787Z,8.73
2018-12-16T03:55:44.097Z,8.90
2018-12-16T03:58:12.326Z,8.47
2018-12-16T04:00:40.565Z,8.27
2018-12-16T04:03:08.785Z,9.10
2018-12-16T04:05:37.010Z,9.70
2018-12-16T04:08:05.215Z,9.67
2018-12-16T04:10:33.474Z,10.40
2018-12-16T04:13:01.686Z,9.17
2018-12-16T04:15:29.900Z,10.93
2018-12-16T04:17:58.142Z,11.13
2018-12-16T04:20:26.380Z,11.43
2018-12-16T04:22:54.726Z,11.47
2018-12-16T04:25:23.359Z,11.73
2018-12-16T04:27:51.646Z,13.53
2018-12-16T04:30:19.884Z,15.07
2018-12-16T04:32:48.140Z,14.57
2018-12-16T04:35:16.373Z,13.73
2018-12-16T04:37:44.616Z,13.70
2018-12-16T04:40:12.842Z,14.70
2018-12-16T04:42:41.069Z,14.17
2018-12-16T04:45:09.319Z,15.27
2018-12-16T04:47:37.501Z,16.10
2018-12-16T04:50:06.665Z,14.70
2018-12-16T04:52:34.924Z,14.87
2018-12-16T04:55:03.168Z,15.00
2018-12-16T04:57:31.386Z,16.57
2018-12-16T04:59:59.612Z,16.13
2018-12-16T05:02:27.819Z,15.50
2018-12-16T05:04:56.073Z,16.43
2018-12-16T05:07:24.288Z,15.50
2018-12-16T05:09:52.515Z,16.23
2018-12-16T05:12:20.732Z,16.70
2018-12-16T05:14:48.950Z,15.87
2018-12-16T05:17:17.173Z,17.97
2018-12-16T05:19:45.423Z,18.03
2018-12-16T05:22:21.156Z,17.47
2018-12-16T05:24:49.396Z,16.70
2018-12-16T05:27:17.608Z,16.30
2018-12-16T05:29:45.854Z,16.00
2018-12-16T05:32:14.071Z,15.47
2018-12-16T05:34:42.338Z,16.17
2018-12-16T05:37:10.623Z,17.30
2018-12-16T05:42:12.611Z,16.13
2018-12-16T05:44:41.133Z,17.07
2018-12-16T05:47:09.340Z,17.57
2018-12-16T05:49:37.544Z,17.47
2018-12-16T05:52:05.774Z,15.77
2018-12-16T05:54:33.996Z,16.50
2018-12-16T05:57:02.250Z,18.17
2018-12-16T05:59:30.459Z,18.07
2018-12-16T06:01:58.699Z,17.97
2018-12-16T06:04:26.920Z,17.87
2018-12-16T06:06:55.178Z,17.73
2018-12-16T06:09:23.789Z,17.60
2018-12-16T06:11:52.039Z,17.73
2018-12-16T06:14:20.270Z,16.80
2018-12-16T06:16:48.522Z,17.33
2018-12-16T06:19:16.739Z,18.40
2018-12-16T06:21:44.970Z,18.17
2018-12-16T06:24:13.194Z,17.73
2018-12-16T06:26:41.434Z,17.43
2018-12-16T06:29:09.637Z,18.30
2018-12-16T06:31:37.854Z,18.77
2018-12-16T06:34:06.063Z,18.00
2018-12-16T06:36:34.304Z,18.63
2018-12-16T06:39:02.509Z,17.70
2018-12-16T06:41:30.743Z,17.63
2018-12-16T06:43:59.061Z,17.17
2018-12-16T06:46:27.223Z,16.43
2018-12-16T06:48:55.420Z,17.63
2018-12-16T06:51:23.660Z,18.13
2018-12-16T06:53:51.872Z,17.17
2018-12-16T06:56:20.114Z,16.87
2018-12-16T06:58:48.331Z,16.37
2018-12-16T07:01:16.581Z,17.63
2018-12-16T07:03:44.823Z,15.77
2018-12-16T07:06:13.083Z,18.07
2018-12-16T07:08:41.288Z,18.43
2018-12-16T07:11:09.534Z,17.47
2018-12-16T07:13:37.748Z,17.73
2018-12-16T07:16:06.039Z,16.13
2018-12-16T07:18:34.283Z,16.67
2018-12-16T07:21:03.613Z,15.40
2018-12-16T07:23:30.735Z,16.87
2018-12-16T07:25:58.957Z,16.17
2018-12-16T07:28:27.179Z,16.13
2018-12-16T07:30:55.392Z,15.70
2018-12-16T07:33:23.638Z,15.43
2018-12-16T07:35:51.889Z,14.93
2018-12-16T07:38:20.075Z,14.63
2018-12-16T07:40:48.306Z,14.57
2018-12-16T07:43:16.605Z,13.40
2018-12-16T07:45:44.812Z,13.70
2018-12-16T07:48:13.042Z,13.63
2018-12-16T07:50:41.322Z,14.20
2018-12-16T07:53:09.552Z,12.93
2018-12-16T07:55:37.745Z,11.97
2018-12-16T07:58:05.979Z,13.40
2018-12-16T08:00:34.196Z,12.30
2018-12-16T08:03:04.321Z,13.47
2018-12-16T08:05:32.572Z,12.40
2018-12-16T08:08:00.794Z,12.50
2018-12-16T08:10:29.076Z,12.93
2018-12-16T08:12:56.426Z,11.80
2018-12-16T08:15:24.577Z,10.57
2018-12-16T08:17:52.831Z,11.63
2018-12-16T08:20:21.047Z,12.10
2018-12-16T08:22:49.282Z,11.63
2018-12-16T08:25:17.490Z,11.90
2018-12-16T08:27:45.761Z,11.60
2018-12-16T08:30:14.000Z,12.17
2018-12-16T08:32:42.230Z,12.17
2018-12-16T08:35:10.455Z,12.33
2018-12-16T08:37:38.704Z,11.40
2018-12-16T08:40:07.445Z,11.90
2018-12-16T08:42:35.693Z,11.27
2018-12-16T08:45:04.643Z,10.73
2018-12-16T08:47:33.341Z,11.77
2018-12-16T08:50:01.154Z,12.70
2018-12-16T08:52:29.425Z,10.97
2018-12-16T08:54:57.634Z,11.07
2018-12-16T08:57:25.853Z,11.37
2018-12-16T08:59:54.084Z,11.03
2018-12-16T09:02:22.318Z,10.70
2018-12-16T09:04:50.522Z,9.57
2018-12-16T09:07:18.766Z,11.13
2018-12-16T09:09:47.000Z,12.47
2018-12-16T09:12:15.246Z,11.23
2018-12-16T09:14:43.470Z,11.20
2018-12-16T09:17:11.677Z,11.40
2018-12-16T09:19:39.901Z,11.27
2018-12-16T09:22:08.139Z,10.83
2018-12-16T09:24:37.451Z,10.10
2018-12-16T09:27:04.633Z,10.40
2018-12-16T09:29:32.855Z,10.37
2018-12-16T09:32:02.782Z,10.47
2018-12-16T09:34:29.436Z,10.27
2018-12-16T09:36:57.744Z,10.67
2018-12-16T09:39:25.970Z,11.03
2018-12-16T09:41:54.184Z,10.73
2018-12-16T09:44:22.421Z,11.20
2018-12-16T09:46:50.670Z,10.00
2018-12-16T09:49:18.876Z,10.83
2018-12-16T09:51:47.114Z,11.00
2018-12-16T09:54:15.342Z,9.63
2018-12-16T09:56:43.577Z,10.60
2018-12-16T09:59:11.803Z,10.53
2018-12-16T10:01:40.017Z,10.43
2018-12-16T10:04:08.232Z,10.50
2018-12-16T10:06:36.444Z,11.03
2018-12-16T10:09:07.188Z,10.63
2018-12-16T10:11:35.400Z,10.57
2018-12-16T10:14:03.684Z,11.33
2018-12-16T10:16:31.896Z,10.97
2018-12-16T10:19:00.170Z,9.43
2018-12-16T10:21:28.344Z,10.20
2018-12-16T10:23:56.678Z,9.33
2018-12-16T10:26:24.773Z,10.43
2018-12-16T10:28:53.058Z,10.07
2018-12-16T10:31:21.269Z,9.33
2018-12-16T10:33:49.497Z,10.10
2018-12-16T10:36:17.709Z,9.53
2018-12-16T10:38:45.978Z,10.43
2018-12-16T10:41:14.219Z,10.80
2018-12-16T10:43:42.502Z,10.33
2018-12-16T10:46:10.809Z,9.90
2018-12-16T10:48:39.024Z,9.57
2018-12-16T10:51:07.416Z,10.20
2018-12-16T10:53:36.612Z,10.57
2018-12-16T10:56:03.845Z,9.87
2018-12-16T10:58:32.058Z,10.50
2018-12-16T11:01:19.446Z,10.23
2018-12-16T11:03:47.720Z,10.27
2018-12-16T11:06:15.935Z,9.87
2018-12-16T11:08:44.175Z,9.83
2018-12-16T11:11:12.550Z,10.57
2018-12-16T11:13:40.752Z,10.07
2018-12-16T11:16:09.004Z,10.13
2018-12-16T11:18:37.222Z,9.27
2018-12-16T11:21:05.460Z,9.13
2018-12-16T11:23:33.666Z,9.37
2018-12-16T11:26:01.916Z,9.40
2018-12-16T11:28:30.142Z,10.23
2018-12-16T11:30:58.389Z,9.43
2018-12-16T11:33:26.591Z,9.53
2018-12-16T11:35:55.071Z,10.43
2018-12-16T11:38:23.229Z,10.53
2018-12-16T11:40:51.505Z,9.60
2018-12-16T11:43:19.756Z,10.47
2018-12-16T11:45:47.994Z,9.50
2018-12-16T11:48:16.219Z,9.63
2018-12-16T11:50:44.471Z,10.03
2018-12-16T11:53:12.701Z,10.20
2018-12-16T11:55:40.945Z,9.63
2018-12-16T11:58:09.172Z,9.60
2018-12-16T12:00:37.396Z,9.80
2018-12-16T12:03:05.675Z,9.63
2018-12-16T12:05:33.928Z,10.50
2018-12-16T12:08:02.138Z,10.57
2018-12-16T12:10:30.375Z,10.50
2018-12-16T12:12:58.575Z,9.63
2018-12-16T12:15:26.806Z,9.73
2018-12-16T12:17:55.011Z,9.57
2018-12-16T12:20:23.202Z,10.07
2018-12-16T12:22:51.438Z,10.67
2018-12-16T12:25:20.124Z,9.13
2018-12-16T12:27:47.910Z,9.80
2018-12-16T12:30:16.130Z,8.73
2018-12-16T12:32:44.369Z,9.87
2018-12-16T12:35:12.573Z,9.80
2018-12-16T12:37:40.810Z,9.37
2018-12-16T12:40:09.011Z,8.77
2018-12-16T12:42:37.265Z,10.37
2018-12-16T12:45:05.663Z,9.60
2018-12-16T12:47:33.884Z,9.73
2018-12-16T12:50:02.154Z,9.13
2018-12-16T12:52:49.800Z,10.03
2018-12-16T12:55:18.044Z,9.93
2018-12-16T12:57:46.275Z,8.40
2018-12-16T13:00:15.424Z,9.53
2018-12-16T13:02:43.862Z,8.57
2018-12-16T13:05:12.170Z,9.10
2018-12-16T13:07:40.405Z,9.63
2018-12-16T13:10:10.883Z,8.73
2018-12-16T13:12:39.115Z,9.63
2018-12-16T13:15:07.354Z,9.30
2018-12-16T13:17:35.589Z,9.93
2018-12-16T13:20:03.817Z,9.93
2018-12-16T13:22:32.050Z,9.87
2018-12-16T13:25:39.066Z,9.97
2018-12-16T13:28:07.316Z,9.47
2018-12-16T13:30:35.537Z,10.30
2018-12-16T13:33:03.770Z,10.10
2018-12-16T13:35:31.985Z,10.87
2018-12-16T13:38:00.211Z,9.40
2018-12-16T13:40:28.435Z,8.90
2018-12-16T13:42:56.657Z,10.93
2018-12-16T13:45:24.877Z,11.00
2018-12-16T13:47:53.079Z,9.87
2018-12-16T13:50:21.285Z,9.80
2018-12-16T13:52:49.497Z,8.87
2018-12-16T13:55:17.729Z,10.13
2018-12-16T13:57:45.935Z,9.67
2018-12-16T14:00:14.180Z,9.83
2018-12-16T14:02:42.373Z,10.10
2018-12-16T14:05:10.611Z,11.60
2018-12-16T14:07:38.855Z,10.63
2018-12-16T14:10:07.200Z,10.47
2018-12-16T14:12:35.411Z,10.90
2018-12-16T14:15:03.648Z,9.30
2018-12-16T14:17:31.863Z,10.20
2018-12-16T14:20:01.554Z,10.87
2018-12-16T14:22:28.296Z,10.37
2018-12-16T14:24:56.533Z,10.30
2018-12-16T14:27:24.762Z,9.50
2018-12-16T14:29:53.073Z,10.17
2018-12-16T14:32:21.281Z,11.83
2018-12-16T14:34:49.557Z,10.40
2018-12-16T14:37:17.781Z,10.58
2018-12-16T14:39:45.972Z,10.73
2018-12-16T14:42:14.202Z,10.20
2018-12-16T14:44:42.710Z,9.90
2018-12-16T14:47:10.946Z,10.27
2018-12-16T14:49:39.153Z,10.40
2018-12-16T14:52:07.379Z,9.80
2018-12-16T14:54:35.606Z,10.53
2018-12-16T14:57:03.847Z,9.67
2018-12-16T14:59:32.051Z,10.37
2018-12-16T15:02:00.284Z,11.00
2018-12-16T15:04:28.488Z,9.23
2018-12-16T15:06:56.728Z,10.50
2018-12-16T15:09:24.944Z,11.33
2018-12-16T15:11:53.195Z,11.10
2018-12-16T15:14:21.421Z,10.93
2018-12-16T15:16:49.692Z,11.07
2018-12-16T15:19:17.887Z,10.50
2018-12-16T15:21:46.132Z,9.47
2018-12-16T15:24:14.341Z,11.53
2018-12-16T15:26:42.583Z,9.83
2018-12-16T15:29:10.805Z,9.93
2018-12-16T15:31:39.075Z,11.43
2018-12-16T15:34:07.284Z,11.27
2018-12-16T15:36:35.563Z,10.77
2018-12-16T15:39:03.830Z,11.07
2018-12-16T15:41:32.071Z,10.37
2018-12-16T15:44:00.304Z,10.57
2018-12-16T15:46:28.600Z,11.33
2018-12-16T15:48:56.911Z,10.53
2018-12-16T15:51:25.356Z,11.30
2018-12-16T15:53:53.561Z,11.73
2018-12-16T15:56:21.828Z,11.33
2018-12-16T15:58:50.041Z,11.17
2018-12-16T16:01:18.263Z,11.07
2018-12-16T16:03:57.398Z,11.10
2018-12-16T16:06:25.627Z,11.57
2018-12-16T16:08:53.881Z,11.30
2018-12-16T16:11:22.115Z,11.73
2018-12-16T16:13:50.377Z,12.27
2018-12-16T16:16:18.606Z,11.23
2018-12-16T16:18:46.855Z,11.70
2018-12-16T16:21:15.061Z,10.73
2018-12-16T16:23:43.337Z,11.30
2018-12-16T16:26:16.229Z,10.40
2018-12-16T16:28:39.803Z,11.90
2018-12-16T16:31:08.031Z,12.20
2018-12-16T16:33:36.282Z,12.73
2018-12-16T16:36:04.510Z,10.93
2018-12-16T16:38:32.748Z,11.27
2018-12-16T16:41:00.956Z,11.93
2018-12-16T16:43:29.206Z,12.13
2018-12-16T16:45:57.411Z,12.90
2018-12-16T16:48:25.656Z,11.50
2018-12-16T16:50:53.871Z,12.10
2018-12-16T16:53:22.116Z,10.93
2018-12-16T16:55:50.308Z,12.43
2018-12-16T16:58:18.555Z,11.30
2018-12-16T17:00:46.767Z,13.20
2018-12-16T17:03:15.004Z,12.53
2018-12-16T17:05:43.221Z,11.63
2018-12-16T17:08:11.487Z,11.57
2018-12-16T17:10:39.693Z,11.97
2018-12-16T17:13:07.939Z,11.93
2018-12-16T17:15:36.221Z,11.70
2018-12-16T17:18:04.553Z,12.27
2018-12-16T17:20:32.776Z,12.00
2018-12-16T17:23:01.005Z,12.40
2018-12-16T17:25:29.225Z,12.50
2018-12-16T17:27:57.472Z,12.23
2018-12-16T17:30:26.217Z,13.23
2018-12-16T17:32:54.389Z,12.43
2018-12-16T17:35:23.332Z,13.37
2018-12-16T17:37:54.672Z,13.63
2018-12-16T17:40:23.475Z,13.17
2018-12-16T17:42:52.041Z,12.63
2018-12-16T17:45:20.297Z,12.53
2018-12-16T17:47:48.677Z,11.67
2018-12-16T17:50:16.912Z,12.73
2018-12-16T17:52:45.145Z,12.73
2018-12-16T17:55:13.382Z,13.07
2018-12-16T17:57:41.612Z,11.53
2018-12-16T18:00:10.303Z,12.30
2018-12-16T18:02:38.622Z,11.77
2018-12-16T18:05:06.853Z,11.90
2018-12-16T18:07:35.136Z,11.97
2018-12-16T18:10:03.371Z,10.80
2018-12-16T18:12:31.581Z,11.43
2018-12-16T18:14:59.814Z,11.20
2018-12-16T18:17:28.020Z,11.20
2018-12-16T18:19:56.250Z,11.10
2018-12-16T18:22:24.457Z,12.17
2018-12-16T18:24:52.709Z,12.13
2018-12-16T18:27:20.936Z,12.70
2018-12-16T18:29:49.184Z,12.27
2018-12-16T18:32:17.431Z,12.63
2018-12-16T18:34:45.680Z,12.50
2018-12-16T18:37:13.920Z,12.47
2018-12-16T18:39:42.164Z,12.43
2018-12-16T18:42:10.394Z,12.43
2018-12-16T18:44:38.627Z,13.13
2018-12-16T18:47:06.922Z,13.03
2018-12-16T18:49:35.076Z,12.33
2018-12-16T18:52:03.310Z,11.40
2018-12-16T18:54:31.546Z,12.40
2018-12-16T18:57:06.969Z,12.80
2018-12-16T18:59:27.953Z,13.30
2018-12-16T19:01:56.194Z,12.43
2018-12-16T19:04:24.395Z,13.07
2018-12-16T19:06:52.645Z,13.27
2018-12-16T19:09:20.981Z,11.80
2018-12-16T19:11:49.259Z,12.40
2018-12-16T19:14:17.476Z,13.17
2018-12-16T19:16:45.731Z,12.37
2018-12-16T19:19:14.184Z,12.13
2018-12-16T19:21:42.480Z,12.40
2018-12-16T19:24:10.686Z,10.63
2018-12-16T19:26:38.926Z,12.13
2018-12-16T19:29:07.135Z,13.23
2018-12-16T19:31:35.953Z,13.00
2018-12-16T19:34:03.621Z,12.03
2018-12-16T19:36:31.840Z,12.77
2018-12-16T19:39:00.060Z,12.43
2018-12-16T19:41:28.307Z,11.63
2018-12-16T19:43:56.513Z,12.00
2018-12-16T19:46:24.727Z,12.93
2018-12-16T19:48:53.248Z,12.37
2018-12-16T19:51:21.519Z,13.17
2018-12-16T19:53:49.710Z,12.50
2018-12-16T19:56:17.982Z,13.37
2018-12-16T19:58:46.215Z,13.13
2018-12-16T20:01:14.944Z,13.63
2018-12-16T20:04:02.225Z,11.90
2018-12-16T20:06:49.584Z,12.27
2018-12-16T20:09:17.817Z,12.83
2018-12-16T20:11:46.299Z,14.10
2018-12-16T20:14:14.518Z,12.80
2018-12-16T20:16:42.739Z,13.10
2018-12-16T20:19:10.970Z,13.73
2018-12-16T20:21:39.222Z,13.43
2018-12-16T20:24:07.496Z,12.80
2018-12-16T20:26:35.734Z,13.90
2018-12-16T20:29:03.964Z,12.63
2018-12-16T20:31:32.202Z,13.50
2018-12-16T20:34:00.432Z,13.27
2018-12-16T20:36:29.234Z,14.67
2018-12-16T20:38:56.887Z,13.17
2018-12-16T20:41:25.080Z,14.17
2018-12-16T20:43:53.335Z,14.47
2018-12-16T20:46:21.558Z,15.63
2018-12-16T20:48:49.808Z,15.10
2018-12-16T20:51:18.044Z,14.13
2018-12-16T20:53:46.288Z,15.27
2018-12-16T20:56:14.528Z,14.03
2018-12-16T20:58:42.742Z,14.90
2018-12-16T21:01:10.956Z,15.67
2018-12-16T21:03:39.198Z,14.50
2018-12-16T21:06:07.409Z,14.73
2018-12-16T21:08:35.658Z,16.27
2018-12-16T21:11:22.988Z,16.03
2018-12-16T21:14:10.371Z,15.13
2018-12-16T21:16:57.783Z,15.60
2018-12-16T21:19:26.013Z,14.77
2018-12-16T21:21:54.238Z,15.97
2018-12-16T21:24:22.482Z,15.20
2018-12-16T21:26:50.688Z,16.50
2018-12-16T21:29:18.900Z,16.13
2018-12-16T21:31:47.114Z,14.30
2018-12-16T21:34:15.346Z,16.00
2018-12-16T21:36:43.645Z,15.77
2018-12-16T21:39:11.817Z,16.40
2018-12-16T21:41:40.037Z,15.57
2018-12-16T21:44:08.253Z,17.27
2018-12-16T21:46:36.477Z,16.70
2018-12-16T21:49:04.829Z,16.47
2018-12-16T21:51:33.071Z,16.87
2018-12-16T21:54:01.316Z,15.80
2018-12-16T21:56:29.526Z,16.17
2018-12-16T21:58:57.768Z,15.43
2018-12-16T22:01:26.006Z,15.70
2018-12-16T22:03:54.248Z,15.60
2018-12-16T22:06:22.511Z,15.13
2018-12-16T22:08:50.775Z,17.47
2018-12-16T22:11:19.010Z,17.07
2018-12-16T22:13:47.250Z,16.73
2018-12-16T22:16:15.477Z,15.30
2018-12-16T22:18:43.748Z,16.10
2018-12-16T22:21:12.002Z,15.80
2018-12-16T22:23:40.268Z,17.03
2018-12-16T22:26:08.490Z,16.97
2018-12-16T22:28:36.741Z,17.10
2018-12-16T22:31:04.961Z,16.33
2018-12-16T22:33:33.224Z,15.87
2018-12-16T22:36:01.440Z,15.80
2018-12-16T22:38:29.686Z,19.83
2018-12-16T22:40:57.906Z,17.70
2018-12-16T22:43:26.137Z,16.00
2018-12-16T22:45:54.388Z,16.87
2018-12-16T22:48:22.628Z,17.33
2018-12-16T22:50:50.865Z,16.03
2018-12-16T22:53:19.115Z,17.57
2018-12-16T22:55:47.707Z,16.07
2018-12-16T22:58:15.936Z,16.07
2018-12-16T23:01:03.270Z,16.67
2018-12-16T23:03:31.530Z,16.17
2018-12-16T23:05:59.736Z,16.23
2018-12-16T23:08:28.040Z,16.07
2018-12-16T23:10:56.254Z,18.27
2018-12-16T23:13:24.500Z,16.53
2018-12-16T23:15:52.717Z,16.97
2018-12-16T23:18:20.925Z,16.53
2018-12-16T23:20:49.159Z,16.93
2018-12-16T23:23:17.405Z,17.77
2018-12-16T23:25:45.627Z,17.57
2018-12-16T23:28:13.841Z,16.40
2018-12-16T23:30:42.094Z,18.57
2018-12-16T23:33:10.319Z,16.60
2018-12-16T23:35:38.577Z,16.97
2018-12-16T23:38:06.791Z,16.37
2018-12-16T23:40:35.074Z,17.23
2018-12-16T23:43:03.344Z,17.67
2018-12-16T23:45:31.565Z,17.40
2018-12-16T23:47:59.773Z,15.80
2018-12-16T23:50:28.046Z,17.17
2018-12-16T23:52:56.262Z,17.57
2018-12-16T23:55:24.500Z,16.63
2018-12-16T23:57:52.737Z,16.83
